Terminal Aerodrome Forecast
Issued by NWS Grand Forks, ND

Home | Current Version | Previous Version | Text Only | Print | Product List | Glossary Off
Versions: 1 2 3 4 5 6 7 8 9 10 11 12 13 14 15 16 17 18 19 20 21 22 23 24

000
FTUS43 KFGF 172300
TAFFAR
TAF
KFAR 172323Z 1800/1824 14007KT P6SM SCT040
     FM180600 16008KT P6SM -TSRA BKN050CB
     FM181200 19008KT P6SM BKN100
     FM181800 29010KT P6SM BKN040
     FM182000 31011KT P6SM VCTS BKN040CB=

USA.gov is the U.S. government's official web portal to all federal, state and local government web resources and services.